createdAt,value
2018-12-29T00:03:24.507Z,57.50
2018-12-29T00:08:30.826Z,57.50
2018-12-29T00:13:37.495Z,57.70
2018-12-29T00:18:43.951Z,57.60
2018-12-29T00:23:49.769Z,57.70
2018-12-29T00:28:55.105Z,57.60
2018-12-29T00:34:01.270Z,57.60
2018-12-29T00:39:09.057Z,57.70
2018-12-29T00:44:15.430Z,57.80
2018-12-29T00:49:21.866Z,57.70
2018-12-29T00:54:27.360Z,57.70
2018-12-29T00:59:33.529Z,57.70
2018-12-29T01:04:39.360Z,57.70
2018-12-29T01:09:45.623Z,57.80
2018-12-29T01:14:51.418Z,57.90
2018-12-29T01:19:59.522Z,57.80
2018-12-29T01:25:05.103Z,57.90
2018-12-29T01:30:10.585Z,58.20
2018-12-29T01:35:16.533Z,58.60
2018-12-29T01:40:22.893Z,57.90
2018-12-29T01:45:29.272Z,58.00
2018-12-29T01:50:34.856Z,57.90
2018-12-29T01:55:41.363Z,57.90
2018-12-29T02:00:47.819Z,58.70
2018-12-29T02:05:54.024Z,58.00
2018-12-29T02:11:00.397Z,58.00
2018-12-29T02:16:06.493Z,58.10
2018-12-29T02:21:12.274Z,58.20
2018-12-29T02:26:17.835Z,58.10
2018-12-29T02:31:24.226Z,58.20
2018-12-29T02:36:29.896Z,58.10
2018-12-29T02:41:35.471Z,58.10
2018-12-29T02:46:41.062Z,58.20
2018-12-29T02:51:46.498Z,58.30
2018-12-29T02:56:51.676Z,58.30
2018-12-29T03:02:00.314Z,58.20
2018-12-29T03:07:06.622Z,58.40
2018-12-29T03:12:13.346Z,58.40
2018-12-29T03:17:19.120Z,58.30
2018-12-29T03:22:25.953Z,58.30
2018-12-29T03:27:31.221Z,58.40
2018-12-29T03:32:38.954Z,58.40
2018-12-29T03:37:44.761Z,58.40
2018-12-29T03:42:50.073Z,58.40
2018-12-29T03:47:56.052Z,58.40
2018-12-29T03:53:01.451Z,58.50
2018-12-29T03:58:07.437Z,58.40
2018-12-29T04:03:12.670Z,58.40
2018-12-29T04:08:18.803Z,58.60
2018-12-29T04:13:24.857Z,58.60
2018-12-29T04:18:32.885Z,58.60
2018-12-29T04:23:40.745Z,58.70
2018-12-29T04:28:46.701Z,58.70
2018-12-29T04:34:10.680Z,58.70
2018-12-29T04:39:16.827Z,58.70
2018-12-29T04:44:23.849Z,58.70
2018-12-29T04:49:30.098Z,58.70
2018-12-29T04:54:35.673Z,58.70
2018-12-29T04:59:41.999Z,58.80
2018-12-29T05:04:48.012Z,58.70
2018-12-29T05:09:54.427Z,58.90
2018-12-29T05:15:00.047Z,58.40
2018-12-29T05:20:05.937Z,58.90
2018-12-29T05:25:11.758Z,58.90
2018-12-29T05:30:18.042Z,59.00
2018-12-29T05:35:23.585Z,58.90
2018-12-29T05:40:29.962Z,59.10
2018-12-29T05:45:36.243Z,59.00
2018-12-29T05:50:42.408Z,59.00
2018-12-29T05:55:49.319Z,59.10
2018-12-29T06:00:55.105Z,59.10
2018-12-29T06:06:00.211Z,59.10
2018-12-29T06:11:06.027Z,59.20
2018-12-29T06:16:12.337Z,59.30
2018-12-29T06:21:18.770Z,59.20
2018-12-29T06:26:26.562Z,59.30
2018-12-29T06:31:32.196Z,59.30
2018-12-29T06:36:45.097Z,59.30
2018-12-29T06:41:51.405Z,59.30
2018-12-29T06:46:57.932Z,59.30
2018-12-29T06:52:04.157Z,59.30
2018-12-29T06:57:10.494Z,59.30
2018-12-29T07:02:17.768Z,59.40
2018-12-29T07:07:23.049Z,59.50
2018-12-29T07:12:29.148Z,59.50
2018-12-29T07:17:34.780Z,59.50
2018-12-29T07:22:40.582Z,59.50
2018-12-29T07:27:48.128Z,59.60
2018-12-29T07:32:55.170Z,59.60
2018-12-29T07:38:02.452Z,59.60
2018-12-29T07:43:08.301Z,59.70
2018-12-29T07:48:14.057Z,59.70
2018-12-29T07:53:24.024Z,59.70
2018-12-29T07:58:29.911Z,59.70
2018-12-29T08:03:35.762Z,59.70
2018-12-29T08:08:41.292Z,59.80
2018-12-29T08:14:04.178Z,59.80
2018-12-29T08:19:09.722Z,60.60
2018-12-29T08:24:15.635Z,59.90
2018-12-29T08:29:21.223Z,60.60
2018-12-29T08:34:26.516Z,60.50
2018-12-29T08:39:34.659Z,59.90
2018-12-29T08:44:41.559Z,60.00
2018-12-29T08:49:46.723Z,59.90
2018-12-29T08:55:26.045Z,60.00
2018-12-29T09:00:31.641Z,60.00
2018-12-29T09:05:38.357Z,60.00
2018-12-29T09:10:43.937Z,60.00
2018-12-29T09:15:49.065Z,60.10
2018-12-29T09:20:56.408Z,60.10
2018-12-29T09:26:11.435Z,61.00
2018-12-29T09:31:18.239Z,60.20
2018-12-29T09:36:24.563Z,60.30
2018-12-29T09:41:30.957Z,60.30
2018-12-29T09:46:37.229Z,60.30
2018-12-29T09:51:43.410Z,60.40
2018-12-29T09:56:49.402Z,60.40
2018-12-29T10:01:56.102Z,60.40
2018-12-29T10:07:03.278Z,60.20
2018-12-29T10:12:09.854Z,60.40
2018-12-29T10:17:16.154Z,60.40
2018-12-29T10:22:21.348Z,60.40
2018-12-29T10:27:30.431Z,60.20
2018-12-29T10:32:39.101Z,60.90
2018-12-29T10:37:44.833Z,60.30
2018-12-29T10:42:51.787Z,60.40
2018-12-29T10:47:58.683Z,60.40
2018-12-29T10:53:04.156Z,60.40
2018-12-29T10:58:10.144Z,60.40
2018-12-29T11:03:16.067Z,60.50
2018-12-29T11:08:22.030Z,60.50
2018-12-29T11:13:28.168Z,60.50
2018-12-29T11:18:35.013Z,60.50
2018-12-29T11:23:41.302Z,60.70
2018-12-29T11:28:48.181Z,60.70
2018-12-29T11:33:55.017Z,60.60
2018-12-29T11:39:02.706Z,60.60
2018-12-29T11:44:08.457Z,60.70
2018-12-29T11:49:18.223Z,60.70
2018-12-29T11:54:22.703Z,60.70
2018-12-29T11:59:29.673Z,60.80
2018-12-29T12:04:38.678Z,60.80
2018-12-29T12:09:45.343Z,60.90
2018-12-29T12:14:52.391Z,60.70
2018-12-29T12:19:59.687Z,60.80
2018-12-29T12:25:07.641Z,60.80
2018-12-29T12:30:14.249Z,60.80
2018-12-29T12:35:20.500Z,60.80
2018-12-29T12:40:26.397Z,60.90
2018-12-29T12:45:31.864Z,61.00
2018-12-29T12:50:37.990Z,60.90
2018-12-29T12:55:44.492Z,60.90
2018-12-29T13:00:50.718Z,61.70
2018-12-29T13:05:55.871Z,61.10
2018-12-29T13:11:02.182Z,61.00
2018-12-29T13:16:09.017Z,61.10
2018-12-29T13:21:16.557Z,61.10
2018-12-29T13:26:22.634Z,61.10
2018-12-29T13:31:27.690Z,61.10
2018-12-29T13:36:34.554Z,61.20
2018-12-29T13:41:41.967Z,61.20
2018-12-29T13:46:47.304Z,61.30
2018-12-29T13:51:53.303Z,61.30
2018-12-29T13:56:58.788Z,61.30
2018-12-29T14:02:06.193Z,61.30
2018-12-29T14:07:11.710Z,61.20
2018-12-29T14:12:16.948Z,61.30
2018-12-29T14:17:22.966Z,61.30
2018-12-29T14:22:29.393Z,62.00
2018-12-29T14:27:36.532Z,61.30
2018-12-29T14:32:42.848Z,61.40
2018-12-29T14:37:48.741Z,61.40
2018-12-29T14:42:55.118Z,61.50
2018-12-29T14:48:01.841Z,61.70
2018-12-29T14:53:07.303Z,61.70
2018-12-29T14:58:14.035Z,61.70
2018-12-29T15:03:20.813Z,61.80
2018-12-29T15:08:28.151Z,61.90
2018-12-29T15:13:35.298Z,61.90
2018-12-29T15:18:44.027Z,61.80
2018-12-29T15:23:50.256Z,62.00
2018-12-29T15:28:57.659Z,62.10
2018-12-29T15:34:03.506Z,62.10
2018-12-29T15:39:09.270Z,62.20
2018-12-29T15:44:17.333Z,62.40
2018-12-29T15:49:23.611Z,62.40
2018-12-29T15:54:29.164Z,63.40
2018-12-29T15:59:35.057Z,62.60
2018-12-29T16:04:41.261Z,62.60
2018-12-29T16:09:47.385Z,62.80
2018-12-29T16:14:52.959Z,62.80
2018-12-29T16:19:58.324Z,62.80
2018-12-29T16:25:04.598Z,62.90
2018-12-29T16:30:10.887Z,62.90
2018-12-29T16:35:17.606Z,62.80
2018-12-29T16:40:23.437Z,62.80
2018-12-29T16:45:31.625Z,63.00
2018-12-29T16:50:37.286Z,63.20
2018-12-29T16:55:43.481Z,63.00
2018-12-29T17:00:55.597Z,63.10
2018-12-29T17:06:02.441Z,63.10
2018-12-29T17:11:09.093Z,63.10
2018-12-29T17:16:15.883Z,63.10
2018-12-29T17:21:23.074Z,63.10
2018-12-29T17:26:29.102Z,63.10
2018-12-29T17:31:35.897Z,63.20
2018-12-29T17:36:42.912Z,63.20
2018-12-29T17:41:54.754Z,63.30
2018-12-29T17:47:01.126Z,63.40
2018-12-29T17:52:42.280Z,63.40
2018-12-29T17:57:48.665Z,63.40
2018-12-29T18:02:54.826Z,63.50
2018-12-29T18:08:18.290Z,63.50
2018-12-29T18:14:13.301Z,63.70
2018-12-29T18:19:19.879Z,63.80
2018-12-29T18:24:25.817Z,64.50
2018-12-29T18:29:34.896Z,63.80
2018-12-29T18:34:42.455Z,63.80
2018-12-29T18:39:48.008Z,63.80
2018-12-29T18:44:53.797Z,63.90
2018-12-29T18:50:02.388Z,63.90
2018-12-29T18:55:08.149Z,63.90
2018-12-29T19:00:26.797Z,64.20
2018-12-29T19:05:33.073Z,64.20
2018-12-29T19:10:38.516Z,64.20
2018-12-29T19:15:45.001Z,64.30
2018-12-29T19:20:52.085Z,64.30
2018-12-29T19:26:01.828Z,64.30
2018-12-29T19:31:08.800Z,64.50
2018-12-29T19:36:15.819Z,64.50
2018-12-29T19:41:22.251Z,64.60
2018-12-29T19:46:29.389Z,64.60
2018-12-29T19:51:36.547Z,64.60
2018-12-29T19:56:44.065Z,64.70
2018-12-29T20:01:50.718Z,64.60
2018-12-29T20:06:57.695Z,64.60
2018-12-29T20:12:14.677Z,64.70
2018-12-29T20:17:21.335Z,64.80
2018-12-29T20:22:29.071Z,64.70
2018-12-29T20:27:38.130Z,64.70
2018-12-29T20:32:45.802Z,64.70
2018-12-29T20:37:53.757Z,64.70
2018-12-29T20:43:03.286Z,64.70
2018-12-29T20:48:11.270Z,64.70
2018-12-29T20:53:18.872Z,64.70
2018-12-29T20:58:24.794Z,64.50
2018-12-29T21:03:33.246Z,63.30
2018-12-29T21:08:39.251Z,63.10
2018-12-29T21:13:46.923Z,63.00
2018-12-29T21:18:54.001Z,62.80
2018-12-29T21:24:02.242Z,62.70
2018-12-29T21:29:11.364Z,62.70
2018-12-29T21:34:18.204Z,62.70
2018-12-29T21:39:32.073Z,62.70
2018-12-29T21:44:37.887Z,63.50
2018-12-29T21:49:46.071Z,63.40
2018-12-29T21:54:51.697Z,63.20
2018-12-29T22:00:04.537Z,63.20
2018-12-29T22:05:11.890Z,63.10
2018-12-29T22:10:19.774Z,63.10
2018-12-29T22:15:26.105Z,63.00
2018-12-29T22:20:33.381Z,62.90
2018-12-29T22:25:47.865Z,62.90
2018-12-29T22:30:47.888Z,62.80
2018-12-29T22:35:53.666Z,62.90
2018-12-29T22:41:00.331Z,62.80
2018-12-29T22:46:05.535Z,62.80
2018-12-29T22:51:11.986Z,62.80
2018-12-29T22:56:18.967Z,62.80
2018-12-29T23:01:24.805Z,62.80
2018-12-29T23:06:30.733Z,62.70
2018-12-29T23:11:37.152Z,62.70
2018-12-29T23:16:43.818Z,62.80
2018-12-29T23:21:51.436Z,62.70
2018-12-29T23:26:58.221Z,62.70
2018-12-29T23:32:04.255Z,62.70
2018-12-29T23:37:10.451Z,62.60
2018-12-29T23:42:16.328Z,62.60
2018-12-29T23:47:22.477Z,62.60
2018-12-29T23:52:28.806Z,62.60
2018-12-29T23:57:36.444Z,62.50
